Time;durP1;ratioP1;P1;durP2;ratioP2;P2;SDS_P1;SDS_P2;PMS_P1;PMS_P2;Temp;Humidity;BMP_temperature;BMP_pressure;BME280_temperature;BME280_humidity;BME280_pressure;Samples;Min_cycle;Max_cycle;Signal;HPM_P1;HPM_P2
2022/04/09 00:00:21;;;;;;;2.20;1.87;;;5.30;61.90;;;;;;20665;6858;121539;-77
2022/04/09 00:02:46;;;;;;;0.80;0.80;;;5.20;62.40;;;;;;20679;6858;118422;-77
2022/04/09 00:05:13;;;;;;;1.40;1.30;;;5.40;62.00;;;;;;20470;6858;296369;-77
2022/04/09 00:07:38;;;;;;;0.80;0.80;;;5.40;61.70;;;;;;20468;6858;340530;-77
2022/04/09 00:10:05;;;;;;;0.20;0.20;;;5.90;60.50;;;;;;20458;6858;282425;-77
2022/04/09 00:12:30;;;;;;;0.50;0.50;;;6.30;59.70;;;;;;20655;6858;117568;-78
2022/04/09 00:14:57;;;;;;;1.93;1.77;;;6.30;59.60;;;;;;20470;6858;307605;-79
2022/04/09 00:17:23;;;;;;;0.60;0.60;;;6.30;58.30;;;;;;20684;6858;116446;-82
2022/04/09 00:19:48;;;;;;;1.90;1.20;;;6.30;58.70;;;;;;20713;6858;116154;-81
2022/04/09 00:22:14;;;;;;;1.65;1.55;;;6.00;59.90;;;;;;20483;6858;278544;-82
2022/04/09 00:24:40;;;;;;;2.00;1.80;;;6.10;59.10;;;;;;20323;6858;311538;-82
2022/04/09 00:27:05;;;;;;;0.70;0.70;;;6.40;57.10;;;;;;20744;6858;117402;-82
2022/04/09 00:29:31;;;;;;;0.73;0.73;;;6.30;57.90;;;;;;20564;6858;316918;-81
2022/04/09 00:31:56;;;;;;;0.40;0.40;;;6.30;57.10;;;;;;20761;6858;117162;-81
2022/04/09 00:34:22;;;;;;;0.40;0.40;;;6.20;58.10;;;;;;20738;6858;117187;-82
2022/04/09 00:36:47;;;;;;;0.20;0.20;;;6.00;59.20;;;;;;20520;6858;339399;-82
2022/04/09 00:39:13;;;;;;;1.37;1.27;;;6.10;57.60;;;;;;20743;6858;116301;-81
2022/04/09 00:41:47;;;;;;;0.60;0.60;;;6.10;58.60;;;;;;20720;6858;117503;-81
2022/04/09 00:44:21;;;;;;;0.50;0.50;;;5.90;60.00;;;;;;20509;6856;344840;-82
2022/04/09 00:46:47;;;;;;;2.00;1.90;;;6.00;58.00;;;;;;20506;6857;306063;-82
2022/04/09 00:49:12;;;;;;;1.02;1.02;;;6.40;56.70;;;;;;20722;6857;117037;-82
2022/04/09 00:51:41;;;;;;;0.57;0.57;;;6.30;57.40;;;;;;20705;6857;116970;-82
2022/04/09 00:54:07;;;;;;;0.60;0.60;;;6.00;58.70;;;;;;20504;6857;323474;-82
2022/04/09 00:56:32;;;;;;;0.50;0.50;;;6.10;58.30;;;;;;20689;6858;117165;-82
2022/04/09 00:58:58;;;;;;;0.35;0.35;;;6.10;58.70;;;;;;20707;6858;117301;-82
2022/04/09 01:01:23;;;;;;;0.40;0.40;;;5.90;59.70;;;;;;20700;6858;116647;-83
2022/04/09 01:03:49;;;;;;;0.40;0.40;;;5.70;60.60;;;;;;20714;6858;117680;-82
2022/04/09 01:06:15;;;;;;;0.25;0.25;;;5.60;61.70;;;;;;20485;6858;278937;-83
2022/04/09 01:08:40;;;;;;;0.22;0.22;;;5.80;60.30;;;;;;20503;6858;306290;-82
2022/04/09 01:11:06;;;;;;;0.30;0.30;;;6.20;57.90;;;;;;20715;6858;117110;-82
2022/04/09 01:13:31;;;;;;;0.30;0.30;;;6.20;58.30;;;;;;20717;6858;118063;-82
2022/04/09 01:15:57;;;;;;;0.30;0.30;;;6.10;59.50;;;;;;20717;6858;117054;-82
2022/04/09 01:18:22;;;;;;;0.30;0.30;;;5.90;60.00;;;;;;20475;6858;277590;-83
2022/04/09 01:20:49;;;;;;;0.30;0.30;;;6.30;56.50;;;;;;20487;6858;307460;-83
2022/04/09 01:23:14;;;;;;;0.20;0.20;;;6.30;56.50;;;;;;20702;6858;116311;-85
2022/04/09 01:25:41;;;;;;;0.30;0.30;;;6.20;57.60;;;;;;20707;6858;116699;-83
2022/04/09 01:28:07;;;;;;;0.33;0.33;;;6.00;58.20;;;;;;20704;6858;116119;-83
2022/04/09 01:30:32;;;;;;;0.30;0.30;;;5.80;59.40;;;;;;20660;6858;117027;-83
2022/04/09 01:32:58;;;;;;;0.40;0.40;;;5.70;60.40;;;;;;20494;6858;316854;-83
2022/04/09 01:35:23;;;;;;;0.40;0.40;;;5.90;58.20;;;;;;20709;6858;122875;-83
2022/04/09 01:37:49;;;;;;;0.40;0.40;;;5.90;58.40;;;;;;20716;6858;121770;-83
2022/04/09 01:40:14;;;;;;;0.40;0.40;;;5.70;59.00;;;;;;20709;6858;127421;-83
2022/04/09 01:42:40;;;;;;;0.60;0.60;;;5.60;59.80;;;;;;20716;6858;117429;-83
2022/04/09 01:45:06;;;;;;;0.60;0.60;;;5.70;58.90;;;;;;20494;6858;337636;-83
2022/04/09 01:47:32;;;;;;;0.50;0.50;;;5.70;58.90;;;;;;20484;6858;307515;-83
2022/04/09 01:49:58;;;;;;;0.70;0.70;;;6.10;56.80;;;;;;20707;6858;117825;-83
2022/04/09 01:52:23;;;;;;;0.70;0.70;;;6.10;57.30;;;;;;20687;6858;117659;-83
2022/04/09 01:54:49;;;;;;;0.80;0.80;;;5.90;58.20;;;;;;20499;6858;335189;-82
2022/04/09 01:57:15;;;;;;;0.70;0.70;;;6.00;57.70;;;;;;20499;6856;307056;-83
2022/04/09 01:59:43;;;;;;;0.70;0.70;;;6.60;55.00;;;;;;20495;6857;337525;-83
2022/04/09 02:02:06;;;;;;;0.60;0.60;;;6.60;54.90;;;;;;20701;6857;117042;-83
2022/04/09 02:04:32;;;;;;;0.80;0.80;;;6.50;55.60;;;;;;20480;6857;309974;-83
2022/04/09 02:06:58;;;;;;;0.70;0.70;;;6.60;55.20;;;;;;20715;6858;117536;-83
2022/04/09 02:09:23;;;;;;;0.83;0.83;;;6.50;55.80;;;;;;20714;6858;116084;-83
2022/04/09 02:11:49;;;;;;;0.70;0.70;;;6.10;58.20;;;;;;20712;6858;116110;-83
2022/04/09 02:14:15;;;;;;;0.87;0.87;;;6.10;58.20;;;;;;20687;6858;117636;-83
2022/04/09 02:16:41;;;;;;;1.10;1.10;;;5.90;58.80;;;;;;20453;6872;309416;-83
2022/04/09 02:19:06;;;;;;;1.27;1.20;;;6.10;57.80;;;;;;20663;6873;117672;-83
2022/04/09 02:21:32;;;;;;;1.20;1.20;;;6.20;57.70;;;;;;20700;6858;117647;-83
2022/04/09 02:23:57;;;;;;;0.90;0.90;;;6.00;58.30;;;;;;20704;6858;117591;-83
2022/04/09 02:26:23;;;;;;;1.40;1.40;;;5.80;60.20;;;;;;20688;6858;118049;-83
2022/04/09 02:28:49;;;;;;;1.17;1.17;;;5.80;59.80;;;;;;20665;6872;116816;-82
2022/04/09 02:31:17;;;;;;;1.30;1.30;;;5.80;60.40;;;;;;20664;6872;117117;-82
2022/04/09 02:33:40;;;;;;;1.50;1.50;;;5.70;60.80;;;;;;20695;6858;117008;-82
2022/04/09 02:36:09;;;;;;;1.90;1.80;;;5.70;61.20;;;;;;20455;6873;291705;-83
2022/04/09 02:38:32;;;;;;;2.00;1.90;;;6.30;58.00;;;;;;20408;6877;282648;-83
2022/04/09 02:40:57;;;;;;;2.00;1.90;;;6.30;57.90;;;;;;20445;6873;308702;-82
2022/04/09 02:43:24;;;;;;;1.60;1.57;;;6.70;56.80;;;;;;20431;6877;308113;-83
2022/04/09 02:45:50;;;;;;;1.80;1.70;;;7.00;55.60;;;;;;20718;6854;117037;-83
2022/04/09 02:48:16;;;;;;;1.87;1.77;;;6.60;57.80;;;;;;20700;6854;120846;-82
2022/04/09 02:50:42;;;;;;;1.80;1.70;;;6.60;57.30;;;;;;20713;6854;116881;-82
2022/04/09 02:53:07;;;;;;;1.43;1.40;;;6.40;58.30;;;;;;20722;6854;117236;-83
2022/04/09 02:55:33;;;;;;;2.00;1.90;;;6.20;59.10;;;;;;20487;6854;308256;-83
2022/04/09 02:58:00;;;;;;;1.43;1.43;;;6.40;57.70;;;;;;20703;6858;117645;-85
2022/04/09 03:00:24;;;;;;;2.10;2.00;;;6.40;57.90;;;;;;20428;6873;279091;-82
2022/04/09 03:02:49;;;;;;;2.20;2.00;;;6.50;57.10;;;;;;20489;6858;337656;-83
2022/04/09 03:05:15;;;;;;;1.60;1.60;;;6.80;56.00;;;;;;20701;6858;116651;-83
2022/04/09 03:07:41;;;;;;;1.55;1.55;;;6.80;56.50;;;;;;20709;6856;117021;-82
2022/04/09 03:10:07;;;;;;;2.00;1.90;;;6.60;57.20;;;;;;20493;6857;337617;-82
2022/04/09 03:12:36;;;;;;;1.73;1.50;;;6.50;57.10;;;;;;20686;6857;122081;-85
2022/04/09 03:15:01;;;;;;;2.05;1.95;;;6.50;57.40;;;;;;20489;6857;279460;-83
2022/04/09 03:17:27;;;;;;;2.20;2.10;;;6.60;56.50;;;;;;20502;6857;287984;-84
2022/04/09 03:19:52;;;;;;;2.13;2.10;;;6.90;55.50;;;;;;20496;6858;342334;-83
2022/04/09 03:22:18;;;;;;;2.23;2.13;;;7.10;54.80;;;;;;20469;6858;344663;-84
2022/04/09 03:24:43;;;;;;;2.50;2.40;;;7.30;54.50;;;;;;20495;6858;308013;-86
2022/04/09 03:27:09;;;;;;;1.70;1.70;;;7.30;53.40;;;;;;20705;6858;117615;-87
2022/04/09 03:29:36;;;;;;;1.80;1.80;;;7.10;54.30;;;;;;20721;6858;117120;-83
2022/04/09 03:32:02;;;;;;;2.10;2.00;;;6.70;55.80;;;;;;20717;6858;116032;-83
2022/04/09 03:34:27;;;;;;;2.67;2.58;;;6.40;57.10;;;;;;20467;6858;308067;-82
2022/04/09 03:36:53;;;;;;;2.40;2.30;;;6.50;56.90;;;;;;20497;6858;278135;-82
2022/04/09 03:39:20;;;;;;;2.20;2.10;;;6.80;55.80;;;;;;20710;6858;116605;-82
2022/04/09 03:41:48;;;;;;;2.50;2.30;;;6.70;56.30;;;;;;20485;6858;312241;-84
2022/04/09 03:44:14;;;;;;;2.40;2.20;;;6.70;55.80;;;;;;20697;6858;117096;-82
2022/04/09 03:46:40;;;;;;;2.62;2.53;;;6.60;56.40;;;;;;20441;6858;278397;-82
2022/04/09 03:49:05;;;;;;;2.20;2.10;;;6.60;56.30;;;;;;20705;6858;117453;-82
2022/04/09 03:51:31;;;;;;;2.37;2.22;;;6.60;56.80;;;;;;20689;6858;116389;-82
2022/04/09 03:53:56;;;;;;;2.83;2.73;;;6.30;57.70;;;;;;20493;6858;279027;-82
2022/04/09 03:56:22;;;;;;;3.10;3.00;;;6.70;56.70;;;;;;20480;6858;279146;-85
2022/04/09 03:58:49;;;;;;;2.85;2.75;;;6.70;56.00;;;;;;20485;6858;278288;-82
2022/04/09 04:01:14;;;;;;;3.00;2.90;;;6.90;56.00;;;;;;20470;6858;307683;-82
2022/04/09 04:03:40;;;;;;;3.37;3.23;;;7.10;54.70;;;;;;20489;6858;283731;-82
2022/04/09 04:06:06;;;;;;;3.50;3.30;;;7.30;54.30;;;;;;20480;6858;307900;-82
2022/04/09 04:08:31;;;;;;;3.60;3.40;;;7.40;54.00;;;;;;20497;6858;278402;-82
2022/04/09 04:10:57;;;;;;;3.90;3.70;;;7.50;53.60;;;;;;20497;6858;336542;-83
2022/04/09 04:13:22;;;;;;;3.73;3.53;;;7.60;53.60;;;;;;20487;6858;311594;-82
2022/04/09 04:15:50;;;;;;;3.10;2.90;;;7.40;54.10;;;;;;20708;6858;117184;-86
2022/04/09 04:18:14;;;;;;;3.90;3.70;;;7.30;54.00;;;;;;20491;6858;278623;-82
2022/04/09 04:20:40;;;;;;;3.10;3.00;;;7.30;54.10;;;;;;20519;6857;117588;-80
2022/04/09 04:23:06;;;;;;;2.97;2.77;;;6.70;56.10;;;;;;20673;6857;117075;-85
2022/04/09 04:25:32;;;;;;;3.60;3.40;;;6.70;56.10;;;;;;20484;6857;308138;-80
2022/04/09 04:27:57;;;;;;;3.47;3.27;;;6.80;56.20;;;;;;20709;6857;117077;-80
2022/04/09 04:30:23;;;;;;;2.72;2.53;;;6.70;56.50;;;;;;20679;6858;118156;-80
2022/04/09 04:32:49;;;;;;;3.40;3.20;;;6.50;57.30;;;;;;20474;6858;319206;-80
2022/04/09 04:35:16;;;;;;;2.58;2.47;;;6.60;56.80;;;;;;20699;6858;116499;-80
2022/04/09 04:37:42;;;;;;;2.60;2.50;;;6.50;56.70;;;;;;20700;6858;123314;-83
2022/04/09 04:40:07;;;;;;;2.80;2.70;;;6.40;57.70;;;;;;20695;6858;117030;-80
2022/04/09 04:42:33;;;;;;;3.00;2.80;;;6.20;58.50;;;;;;20675;6858;118289;-81
2022/04/09 04:44:59;;;;;;;3.90;3.70;;;6.10;59.20;;;;;;20479;6858;307318;-78
2022/04/09 04:47:24;;;;;;;3.17;2.97;;;6.20;58.30;;;;;;20692;6858;117016;-78
2022/04/09 04:49:52;;;;;;;4.00;3.60;;;6.20;59.20;;;;;;20686;6858;118204;-77
2022/04/09 04:52:17;;;;;;;4.10;3.80;;;6.10;59.10;;;;;;20667;6858;117296;-79
2022/04/09 04:54:43;;;;;;;3.87;3.58;;;6.10;59.90;;;;;;20665;6858;118808;-78
2022/04/09 04:57:08;;;;;;;3.55;3.35;;;5.90;60.20;;;;;;20715;6858;117269;-79
2022/04/09 04:59:34;;;;;;;4.25;4.05;;;5.80;60.50;;;;;;20698;6858;116871;-78
2022/04/09 05:02:01;;;;;;;4.30;4.00;;;5.70;60.90;;;;;;20677;6858;119168;-80
2022/04/09 05:04:31;;;;;;;5.12;4.72;;;5.70;61.20;;;;;;20452;6858;338895;-80
2022/04/09 05:06:56;;;;;;;4.60;4.33;;;5.90;59.70;;;;;;20717;6858;120761;-80
2022/04/09 05:09:22;;;;;;;5.10;4.80;;;6.00;59.70;;;;;;20512;6858;308613;-79
2022/04/09 05:11:47;;;;;;;5.07;4.78;;;6.20;58.50;;;;;;20518;6858;308000;-79
2022/04/09 05:14:14;;;;;;;4.75;4.37;;;6.50;56.90;;;;;;20691;6858;118177;-76
2022/04/09 05:16:40;;;;;;;5.20;4.80;;;6.20;58.00;;;;;;20677;6858;116908;-69
2022/04/09 05:19:06;;;;;;;4.90;4.60;;;6.30;58.10;;;;;;20686;6858;117470;-70
2022/04/09 05:21:31;;;;;;;4.97;4.57;;;6.00;59.00;;;;;;20663;6858;117038;-72
2022/04/09 05:23:57;;;;;;;5.13;4.83;;;5.90;59.80;;;;;;20691;6858;121181;-68
2022/04/09 05:26:23;;;;;;;5.53;5.13;;;5.80;60.50;;;;;;20656;6858;118696;-66
2022/04/09 05:28:53;;;;;;;5.18;4.90;;;5.60;61.50;;;;;;20688;6858;117218;-68
2022/04/09 05:31:15;;;;;;;7.00;6.40;;;5.60;61.50;;;;;;20459;6856;283334;-68
2022/04/09 05:33:41;;;;;;;5.77;5.27;;;5.90;59.60;;;;;;20685;6857;117727;-69
2022/04/09 05:36:07;;;;;;;6.33;5.70;;;5.90;59.60;;;;;;20682;6857;117181;-70
2022/04/09 05:38:34;;;;;;;5.25;4.82;;;5.80;60.80;;;;;;20652;6857;117290;-70
2022/04/09 05:40:59;;;;;;;6.97;6.47;;;5.80;60.80;;;;;;20468;6857;278658;-71
2022/04/09 05:43:24;;;;;;;6.15;5.65;;;6.00;59.10;;;;;;20683;6858;116116;-70
2022/04/09 05:45:50;;;;;;;6.00;5.60;;;6.20;59.40;;;;;;20688;6858;117866;-70
2022/04/09 05:48:15;;;;;;;7.15;6.65;;;6.10;60.00;;;;;;20445;6858;278700;-70
2022/04/09 05:50:41;;;;;;;7.90;7.30;;;6.30;58.50;;;;;;20467;6858;312934;-72
2022/04/09 05:53:06;;;;;;;6.62;6.12;;;6.60;56.80;;;;;;20678;6858;118030;-69
2022/04/09 05:55:32;;;;;;;7.90;7.40;;;6.70;57.20;;;;;;20469;6858;312296;-71
2022/04/09 05:57:58;;;;;;;8.40;7.90;;;6.80;56.50;;;;;;20465;6858;337687;-68
2022/04/09 06:00:23;;;;;;;8.80;8.20;;;7.10;55.60;;;;;;20448;6858;316409;-69
2022/04/09 06:02:49;;;;;;;8.45;7.95;;;7.30;54.20;;;;;;20473;6858;298439;-68
2022/04/09 06:05:14;;;;;;;8.20;7.50;;;7.50;53.40;;;;;;20684;6858;117496;-68
2022/04/09 06:07:41;;;;;;;8.03;7.33;;;7.00;55.50;;;;;;20676;6858;123243;-69
2022/04/09 06:10:06;;;;;;;9.03;8.43;;;7.00;55.40;;;;;;20474;6858;307286;-70
2022/04/09 06:12:32;;;;;;;9.60;8.90;;;7.00;54.90;;;;;;20423;6858;308163;-71
2022/04/09 06:14:57;;;;;;;8.73;7.82;;;7.20;53.80;;;;;;20676;6858;117212;-72
2022/04/09 06:17:27;;;;;;;9.82;9.13;;;7.30;54.70;;;;;;20458;6858;312615;-73
2022/04/09 06:19:52;;;;;;;8.33;7.70;;;7.30;54.60;;;;;;20681;6858;117050;-74
2022/04/09 06:22:18;;;;;;;9.20;8.60;;;7.40;56.10;;;;;;20438;6858;312514;-76
2022/04/09 06:24:44;;;;;;;7.47;6.93;;;7.70;55.70;;;;;;20682;6858;117738;-69
2022/04/09 06:27:14;;;;;;;7.43;6.87;;;7.70;55.70;;;;;;20682;6858;117456;-75
2022/04/09 06:29:40;;;;;;;9.20;8.50;;;7.70;56.60;;;;;;20463;6858;313694;-70
2022/04/09 06:32:05;;;;;;;7.25;6.70;;;7.80;54.30;;;;;;20683;6858;117539;-72
2022/04/09 06:34:31;;;;;;;7.37;6.87;;;7.90;55.40;;;;;;20661;6858;117471;-74
2022/04/09 06:36:59;;;;;;;7.85;7.25;;;7.80;56.30;;;;;;20464;6858;279088;-75
2022/04/09 06:39:24;;;;;;;8.03;7.43;;;7.90;54.30;;;;;;20463;6858;307341;-72
2022/04/09 06:41:50;;;;;;;6.68;6.28;;;8.20;53.80;;;;;;20674;6856;118678;-74
2022/04/09 06:44:16;;;;;;;6.63;6.00;;;8.00;54.20;;;;;;20666;6857;118061;-72
2022/04/09 06:46:43;;;;;;;7.55;6.95;;;8.00;54.00;;;;;;20467;6857;283891;-73
2022/04/09 06:49:07;;;;;;;6.80;6.32;;;8.10;52.70;;;;;;20681;6857;117018;-72
2022/04/09 06:51:33;;;;;;;6.70;6.20;;;8.10;53.80;;;;;;20465;6857;338140;-71
2022/04/09 06:53:59;;;;;;;6.22;5.72;;;8.30;51.50;;;;;;20683;6858;117066;-72
2022/04/09 06:56:24;;;;;;;5.90;5.40;;;8.40;52.30;;;;;;20659;6858;123261;-76
2022/04/09 06:58:50;;;;;;;5.47;5.07;;;8.30;54.70;;;;;;20685;6858;117266;-73
2022/04/09 07:01:16;;;;;;;6.73;6.10;;;8.30;54.70;;;;;;20669;6858;117168;-71
2022/04/09 07:03:43;;;;;;;6.30;5.70;;;8.30;55.60;;;;;;20463;6858;312372;-73
2022/04/09 07:06:11;;;;;;;4.70;4.30;;;8.50;51.60;;;;;;20691;6858;67476;-73
2022/04/09 07:08:36;;;;;;;5.68;5.28;;;8.60;52.60;;;;;;20427;6858;308613;-73
2022/04/09 07:11:01;;;;;;;5.00;4.60;;;8.90;50.30;;;;;;20674;6858;116974;-74
2022/04/09 07:13:28;;;;;;;4.45;4.15;;;9.00;51.50;;;;;;20682;6858;117458;-74
2022/04/09 07:15:54;;;;;;;4.70;4.40;;;8.90;52.10;;;;;;20466;6858;288254;-79
2022/04/09 07:18:19;;;;;;;4.90;4.60;;;9.00;48.60;;;;;;20671;6858;149442;-70
2022/04/09 07:20:45;;;;;;;4.90;4.50;;;9.00;49.80;;;;;;20467;6858;308576;-70
2022/04/09 07:23:10;;;;;;;5.03;4.62;;;9.20;47.90;;;;;;20458;6858;308073;-70
2022/04/09 07:25:37;;;;;;;4.12;3.83;;;9.30;48.40;;;;;;20680;6858;117005;-71
2022/04/09 07:28:02;;;;;;;4.20;3.80;;;9.30;48.40;;;;;;20667;6858;118089;-70
2022/04/09 07:30:29;;;;;;;4.07;3.50;;;8.80;50.50;;;;;;20656;6858;117210;-73
2022/04/09 07:32:56;;;;;;;4.07;3.37;;;8.80;50.50;;;;;;20676;6858;118134;-71
2022/04/09 07:35:21;;;;;;;3.87;3.50;;;8.80;52.50;;;;;;20675;6858;117503;-73
2022/04/09 07:37:49;;;;;;;5.20;3.93;;;8.80;52.40;;;;;;20693;6858;117314;-77
2022/04/09 07:40:13;;;;;;;4.53;4.07;;;8.80;52.50;;;;;;20679;6858;120921;-72
2022/04/09 07:42:38;;;;;;;5.00;4.57;;;8.80;52.40;;;;;;20435;6858;279439;-74
2022/04/09 07:45:04;;;;;;;4.30;3.90;;;9.00;49.50;;;;;;20681;6858;117493;-73
2022/04/09 07:47:31;;;;;;;4.15;3.80;;;9.40;48.10;;;;;;20461;6858;336802;-74
2022/04/09 07:49:57;;;;;;;4.47;4.10;;;9.60;49.40;;;;;;20679;6858;117106;-73
2022/04/09 07:52:22;;;;;;;3.90;3.60;;;9.60;49.40;;;;;;20644;6858;118324;-73
2022/04/09 07:54:48;;;;;;;3.83;3.53;;;9.50;49.90;;;;;;20686;6856;117984;-72
2022/04/09 07:57:14;;;;;;;3.72;3.42;;;9.30;50.00;;;;;;20686;6857;117028;-71
2022/04/09 07:59:39;;;;;;;3.55;3.35;;;9.10;50.50;;;;;;20682;6857;117711;-76
2022/04/09 08:02:05;;;;;;;5.03;3.80;;;9.10;51.40;;;;;;20462;6857;337342;-76
2022/04/09 08:04:30;;;;;;;4.00;3.60;;;9.40;47.80;;;;;;20445;6857;308087;-76
2022/04/09 08:06:57;;;;;;;4.20;3.83;;;9.80;47.70;;;;;;20686;6858;117937;-76
2022/04/09 08:09:23;;;;;;;4.63;4.10;;;10.10;47.80;;;;;;20483;6858;311585;-76
2022/04/09 08:11:48;;;;;;;4.22;3.50;;;10.50;47.50;;;;;;20437;6858;280244;-76
2022/04/09 08:14:14;;;;;;;4.37;3.97;;;11.00;45.00;;;;;;20459;6858;338247;-76
2022/04/09 08:16:40;;;;;;;4.00;3.70;;;11.40;43.40;;;;;;20422;6858;336933;-76
2022/04/09 08:19:07;;;;;;;4.10;3.33;;;11.70;42.10;;;;;;20667;6858;117233;-76
2022/04/09 08:21:32;;;;;;;3.83;2.83;;;11.60;43.90;;;;;;20673;6858;117767;-78
2022/04/09 08:23:58;;;;;;;3.30;3.00;;;11.50;45.30;;;;;;20688;6858;117639;-74
2022/04/09 08:26:23;;;;;;;4.47;3.50;;;11.20;45.90;;;;;;20413;6872;280234;-76
2022/04/09 08:28:49;;;;;;;4.82;3.50;;;11.30;42.30;;;;;;20428;6872;308657;-74
2022/04/09 08:31:14;;;;;;;5.12;3.90;;;11.40;41.60;;;;;;20421;6873;308624;-76
2022/04/09 08:33:42;;;;;;;3.72;3.42;;;11.50;44.10;;;;;;20683;6858;117587;-78
2022/04/09 08:36:06;;;;;;;4.37;3.03;;;11.50;44.10;;;;;;20460;6858;280408;-76
2022/04/09 08:38:32;;;;;;;2.78;2.50;;;11.50;42.10;;;;;;20666;6858;117940;-77
2022/04/09 08:41:00;;;;;;;2.80;2.60;;;11.50;43.60;;;;;;20673;6858;117774;-73
2022/04/09 08:43:23;;;;;;;4.28;2.30;;;11.40;44.90;;;;;;20673;6858;117379;-73
2022/04/09 08:45:49;;;;;;;3.75;2.80;;;11.40;45.40;;;;;;20680;6858;117406;-73
2022/04/09 08:48:15;;;;;;;2.17;2.00;;;11.30;46.00;;;;;;20676;6858;121513;-72
2022/04/09 08:50:40;;;;;;;4.40;2.67;;;11.30;46.00;;;;;;20284;6858;300034;-71
2022/04/09 08:53:07;;;;;;;4.80;3.62;;;12.20;40.80;;;;;;20451;6858;312101;-70
2022/04/09 08:55:32;;;;;;;5.20;2.97;;;12.20;40.80;;;;;;20676;6858;117736;-72
2022/04/09 08:57:58;;;;;;;5.60;3.42;;;12.30;42.10;;;;;;20675;6858;117291;-74
2022/04/09 09:00:23;;;;;;;3.23;2.27;;;12.10;42.70;;;;;;20613;6873;117700;-72
2022/04/09 09:02:56;;;;;;;4.00;2.40;;;11.80;43.10;;;;;;20637;6873;117414;-72
2022/04/09 09:05:31;;;;;;;3.33;2.80;;;11.70;43.90;;;;;;20467;6856;278894;-70
2022/04/09 09:07:57;;;;;;;3.08;2.70;;;12.00;40.70;;;;;;20474;6857;306977;-72
2022/04/09 09:10:23;;;;;;;3.87;3.00;;;12.40;39.30;;;;;;20614;6872;119492;-71
2022/04/09 09:12:58;;;;;;;4.70;2.60;;;12.30;40.30;;;;;;20626;6872;118211;-71
2022/04/09 09:15:23;;;;;;;4.20;3.73;;;11.90;41.40;;;;;;20623;6877;117251;-70
2022/04/09 09:17:49;;;;;;;3.70;2.80;;;11.60;42.90;;;;;;20695;6854;118101;-72
2022/04/09 09:20:15;;;;;;;3.00;2.70;;;11.50;43.20;;;;;;20674;6854;117541;-72
2022/04/09 09:22:43;;;;;;;4.50;2.62;;;11.30;43.70;;;;;;20471;6854;308411;-72
2022/04/09 09:25:09;;;;;;;4.32;3.00;;;11.50;40.80;;;;;;20448;6858;308066;-71
2022/04/09 09:27:34;;;;;;;2.90;2.37;;;11.70;39.10;;;;;;20650;6858;117805;-68
2022/04/09 09:30:00;;;;;;;2.78;1.85;;;11.60;40.60;;;;;;20676;6858;117692;-68
2022/04/09 09:32:25;;;;;;;2.65;2.10;;;11.60;41.80;;;;;;20645;6858;118219;-69
2022/04/09 09:34:59;;;;;;;2.97;1.90;;;11.50;42.50;;;;;;20446;6858;308034;-68
2022/04/09 09:37:24;;;;;;;3.20;1.80;;;11.80;39.20;;;;;;20678;6858;121172;-68
2022/04/09 09:39:48;;;;;;;3.05;1.90;;;11.90;38.80;;;;;;20455;6858;313715;-67
2022/04/09 09:42:14;;;;;;;3.15;2.15;;;12.20;38.40;;;;;;20678;6858;117257;-67
2022/04/09 09:44:43;;;;;;;4.90;2.70;;;12.40;40.10;;;;;;20438;6858;341151;-68
2022/04/09 09:47:08;;;;;;;5.00;2.90;;;12.70;36.60;;;;;;20683;6858;117599;-67
2022/04/09 09:49:37;;;;;;;5.87;2.87;;;12.70;38.40;;;;;;20668;6858;117214;-67
2022/04/09 09:52:06;;;;;;;2.80;2.43;;;12.50;39.50;;;;;;20656;6858;118053;-67
2022/04/09 09:54:31;;;;;;;3.55;2.60;;;12.20;40.90;;;;;;20429;6858;338138;-67
2022/04/09 09:56:56;;;;;;;3.72;2.50;;;12.20;36.80;;;;;;20453;6858;279347;-67
2022/04/09 09:59:22;;;;;;;6.05;2.83;;;12.40;36.70;;;;;;20677;6858;117935;-68
2022/04/09 10:01:48;;;;;;;3.30;2.20;;;12.30;38.30;;;;;;20467;6858;307591;-67
2022/04/09 10:04:13;;;;;;;5.80;2.60;;;12.20;36.40;;;;;;20681;6858;120540;-71
2022/04/09 10:06:39;;;;;;;2.80;2.10;;;11.90;38.10;;;;;;20667;6858;117417;-70
2022/04/09 10:09:07;;;;;;;4.23;3.07;;;11.50;39.30;;;;;;20465;6858;307783;-71
2022/04/09 10:11:34;;;;;;;3.10;2.80;;;11.40;39.90;;;;;;20681;6858;117792;-72
2022/04/09 10:13:59;;;;;;;3.97;2.97;;;11.40;39.80;;;;;;20655;6858;118991;-75
2022/04/09 10:16:27;;;;;;;2.92;2.40;;;11.40;41.20;;;;;;20652;6856;117341;-74
2022/04/09 10:18:50;;;;;;;4.03;2.33;;;11.50;42.40;;;;;;20695;6857;67654;-73
2022/04/09 10:21:15;;;;;;;3.37;2.30;;;11.60;42.60;;;;;;20467;6857;308312;-72
2022/04/09 10:23:42;;;;;;;4.18;2.12;;;11.90;40.40;;;;;;20473;6857;308271;-77
2022/04/09 10:26:08;;;;;;;4.80;2.13;;;12.30;39.60;;;;;;20464;6857;282203;-75
2022/04/09 10:28:34;;;;;;;4.37;1.93;;;12.60;36.10;;;;;;20653;6858;118124;-74
2022/04/09 10:31:01;;;;;;;2.78;1.98;;;12.60;39.20;;;;;;20462;6858;337618;-74
2022/04/09 10:33:28;;;;;;;3.37;1.93;;;12.70;37.10;;;;;;20465;6858;341686;-74
2022/04/09 10:35:53;;;;;;;2.78;1.83;;;13.10;36.60;;;;;;20443;6858;312630;-77
2022/04/09 10:38:25;;;;;;;3.27;2.20;;;13.50;37.60;;;;;;20464;6858;313765;-71
2022/04/09 10:40:52;;;;;;;2.57;1.80;;;13.80;36.30;;;;;;20647;6858;117989;-74
2022/04/09 10:43:23;;;;;;;3.67;1.90;;;13.90;37.90;;;;;;20671;6858;117627;-72
2022/04/09 10:46:02;;;;;;;3.37;1.77;;;13.50;38.80;;;;;;20679;6858;123459;-76
2022/04/09 10:48:27;;;;;;;5.60;2.27;;;13.50;38.70;;;;;;20658;6858;119893;-76
2022/04/09 10:50:54;;;;;;;4.20;2.33;;;13.30;39.10;;;;;;20377;6858;278799;-75
2022/04/09 10:53:18;;;;;;;4.23;2.10;;;13.30;34.70;;;;;;20467;6858;279136;-77
2022/04/09 10:55:46;;;;;;;4.87;2.10;;;13.10;34.20;;;;;;20680;6858;117099;-79
2022/04/09 10:58:12;;;;;;;4.10;2.20;;;13.10;34.80;;;;;;20389;6858;285117;-81
2022/04/09 11:00:43;;;;;;;4.03;2.20;;;13.00;35.50;;;;;;20470;6858;311958;-79
2022/04/09 11:03:14;;;;;;;4.80;2.30;;;13.20;35.00;;;;;;20667;6858;117127;-77
2022/04/09 11:05:40;;;;;;;2.87;2.20;;;13.10;37.10;;;;;;20459;6858;283656;-78
2022/04/09 11:08:03;;;;;;;3.97;2.40;;;13.10;33.80;;;;;;20468;6858;282305;-79
2022/04/09 11:10:29;;;;;;;3.55;2.15;;;13.20;32.70;;;;;;20371;6858;310119;-78
2022/04/09 11:12:55;;;;;;;2.90;2.12;;;13.30;33.00;;;;;;20673;6858;117683;-77
2022/04/09 11:15:21;;;;;;;5.32;2.37;;;13.20;35.00;;;;;;20471;6858;308199;-77
2022/04/09 11:17:47;;;;;;;5.18;2.75;;;13.10;33.90;;;;;;20663;6858;117570;-76
2022/04/09 11:20:13;;;;;;;3.92;2.47;;;13.00;35.50;;;;;;20462;6858;337189;-75
2022/04/09 11:22:38;;;;;;;3.05;1.87;;;12.90;31.70;;;;;;20636;6858;120181;-75
2022/04/09 11:25:04;;;;;;;2.83;2.40;;;12.70;33.90;;;;;;20461;6858;312944;-76
2022/04/09 11:27:30;;;;;;;4.37;2.73;;;12.60;31.00;;;;;;20469;6858;308221;-76
2022/04/09 11:29:55;;;;;;;2.42;2.00;;;12.70;31.80;;;;;;20692;6856;119970;-76
2022/04/09 11:32:21;;;;;;;3.63;2.00;;;12.50;33.80;;;;;;20657;6857;120142;-76
2022/04/09 11:34:53;;;;;;;3.10;2.27;;;12.20;35.00;;;;;;20466;6857;280005;-75
2022/04/09 11:37:19;;;;;;;4.33;2.60;;;12.40;32.40;;;;;;20445;6857;308496;-73
2022/04/09 11:39:45;;;;;;;3.97;1.87;;;12.40;32.40;;;;;;20677;6858;117202;-71
2022/04/09 11:42:13;;;;;;;3.73;2.17;;;12.40;34.20;;;;;;20463;6858;307219;-75
2022/04/09 11:44:39;;;;;;;3.10;2.20;;;12.30;32.10;;;;;;20636;6858;120014;-73
2022/04/09 11:47:10;;;;;;;5.87;2.40;;;12.20;34.60;;;;;;20467;6858;279699;-74
2022/04/09 11:49:36;;;;;;;4.57;2.28;;;12.30;32.80;;;;;;20465;6858;284094;-73
2022/04/09 11:52:06;;;;;;;3.63;2.17;;;12.90;32.50;;;;;;20461;6858;342125;-73
2022/04/09 11:54:31;;;;;;;2.73;1.67;;;12.90;32.50;;;;;;20656;6858;127284;-72
2022/04/09 11:56:57;;;;;;;2.50;1.80;;;12.80;34.70;;;;;;20675;6858;117946;-74
2022/04/09 11:59:22;;;;;;;3.33;2.00;;;12.70;36.00;;;;;;20470;6858;308162;-72
2022/04/09 12:01:51;;;;;;;2.80;1.50;;;12.90;35.60;;;;;;20679;6858;118167;-72
2022/04/09 12:04:14;;;;;;;4.13;1.87;;;12.90;35.80;;;;;;20462;6858;311916;-73
2022/04/09 12:06:43;;;;;;;2.65;1.87;;;13.20;34.60;;;;;;20648;6858;120751;-76
2022/04/09 12:09:08;;;;;;;2.63;1.63;;;13.30;35.40;;;;;;20689;6858;117517;-72
2022/04/09 12:11:34;;;;;;;3.55;2.17;;;13.20;36.00;;;;;;20474;6858;311523;-72
2022/04/09 12:14:06;;;;;;;3.17;1.63;;;13.20;32.30;;;;;;20692;6858;117148;-73
2022/04/09 12:16:32;;;;;;;5.03;1.77;;;13.10;34.00;;;;;;20660;6858;130703;-73
2022/04/09 12:18:58;;;;;;;2.47;1.98;;;12.80;35.10;;;;;;20664;6858;117675;-80
2022/04/09 12:21:25;;;;;;;4.73;3.40;;;12.70;33.30;;;;;;20442;6858;309001;-72
2022/04/09 12:24:01;;;;;;;3.27;2.20;;;12.70;33.30;;;;;;20672;6858;117297;-74
2022/04/09 12:26:26;;;;;;;2.17;1.53;;;12.70;35.00;;;;;;20662;6858;127829;-76
2022/04/09 12:29:32;;;;;;;4.50;1.77;;;12.40;36.60;;;;;;20681;6858;117659;-74
2022/04/09 12:32:12;;;;;;;3.33;1.55;;;12.40;36.60;;;;;;20475;6858;314186;-77
2022/04/09 12:34:58;;;;;;;4.27;1.87;;;12.70;33.10;;;;;;20455;6858;316177;-76
2022/04/09 12:37:24;;;;;;;2.20;1.10;;;13.20;34.10;;;;;;20556;6858;117302;-77